x

Port Orford - 15 Nm West Of Port Orford, Or (46015) Wave Buoy

7:50pm - Thu 17th Aug 2017 All times are PDT. -7 hours from GMT.

  • Sig Wave height 7.2ft
  • Swell Direction
  • Peak Period 11s
  • Average Period 6s
  • Wind
    22mph, 27mph gusts
  • Sea Temp 54°f
  • Air Temp 56°f
  • Sea Pressure 1019.4mb
  • Port Orford - 15 Nm West Of Port Orford, Or
  • Port Orford - 15 Nm West Of Port Orford, Or

More Historic Weather Station data

Upgrade to MSW Pro to gain access to the past 30 days of data for over 8000 Wavebouys and Weather Stations around the globe.

Join

Comparision Forecast

View Surf forecast
   
Thu 08/17 7:50pm 7ft 11s 6s 22 27 mph 1019.4mb 54f 56f
7:40pm 7ft  -  6s 22 27 mph 1019.3mb 54f 57f
7:30pm  -   -   -  22 27 mph 1019.2mb 54f 57f
7:20pm  -   -   -  22 27 mph 1019.3mb 54f 57f
7:10pm  -   -   -  25 29 mph 1019.3mb 54f 57f
7:00pm  -   -   -  25 29 mph 1019.3mb 54f 57f
6:40pm  -   -   -  25 29 mph 1019.5mb 54f 57f
6:30pm  -   -   -  25 29 mph 1019.5mb 54f 57f
6:20pm  -   -   -  25 31 mph 1019.5mb 54f 57f
6:10pm  -   -   -  25 29 mph 1019.5mb - 57f
6:00pm  -   -   -  25 31 mph 1019.5mb 54f 57f
5:50pm 7ft 11s 6s 25 29 mph 1019.4mb 54f 57f
5:40pm 7ft  -  6s 25 31 mph 1019.5mb 54f 58f
5:30pm  -   -   -  27 34 mph 1019.5mb 54f 58f
5:20pm  -   -   -  27 31 mph 1019.5mb 54f 57f
5:10pm  -   -   -  25 31 mph 1019.5mb 54f 57f
5:00pm  -   -   -  25 31 mph 1019.6mb 54f 57f
4:50pm 7ft 11s 6s 25 31 mph 1019.6mb 54f 57f
4:40pm 7ft  -  6s 27 34 mph 1019.6mb 54f 58f
4:30pm  -   -   -  27 31 mph 1019.6mb 54f 58f
4:20pm  -   -   -  27 31 mph 1019.6mb 55f 58f
4:10pm  -   -   -  27 31 mph 1019.7mb 55f 57f
4:00pm  -   -   -  25 29 mph 1019.7mb 55f 57f
3:50pm 8ft 11s 6s 25 31 mph 1019.7mb 54f 57f
3:40pm  -   -   -  25 31 mph 1019.7mb 54f 58f
3:30pm  -   -   -  25 29 mph 1019.7mb 54f 58f
3:20pm  -   -   -  25 29 mph 1019.7mb 54f 58f
3:10pm  -   -   -  25 31 mph 1019.7mb 54f 58f
3:00pm  -   -   -  25 31 mph 1019.8mb 54f 58f
2:50pm 8ft 6s 6s 25 31 mph 1019.8mb 54f 58f
2:40pm 8ft  -  6s 25 29 mph 1020mb 54f 58f
2:30pm  -   -   -  25 29 mph 1020.1mb 55f 58f
2:20pm  -   -   -  25 29 mph 1020.2mb 54f 58f
2:10pm  -   -   -  25 31 mph 1020.3mb 55f 58f
2:00pm  -   -   -  25 31 mph 1020.2mb 54f 58f
1:50pm 7ft  -  6s 25 31 mph 1020.1mb - -
1:40pm  -   -   -  25 31 mph 1020.4mb 54f 58f
1:30pm  -   -   -  25 31 mph 1020.4mb 54f 58f
1:20pm  -   -   -  25 31 mph 1020.4mb 54f 58f
1:10pm  -   -   -  27 31 mph 1020.4mb 54f 58f
1:00pm  -   -   -  25 31 mph 1020.4mb 54f 57f
12:50pm 7ft 10s 6s 25 31 mph 1020.5mb 54f 57f
12:40pm  -   -   -  27 34 mph 1020.5mb 54f 57f
12:30pm  -   -   -  25 31 mph 1020.6mb 54f 57f
12:20pm  -   -   -  27 31 mph 1020.6mb 54f 57f
12:10pm  -   -   -  25 31 mph 1020.5mb 54f 57f
12:00pm  -   -   -  25 29 mph 1020.6mb 54f 57f
11:50am 6.5ft 10s 5s 25 31 mph 1020.5mb - 57f
11:40am 6.5ft  -  5s 25 31 mph 1020.5mb 54f 57f
11:30am  -   -   -  25 29 mph 1020.5mb 54f 57f
11:20am  -   -   -  25 31 mph 1020.5mb 54f 57f
11:10am  -   -   -  25 29 mph 1020.6mb 54f 57f
11:00am  -   -   -  25 29 mph 1020.5mb 54f 57f
10:50am 6ft 10s 6s 25 31 mph 1020.5mb 54f 57f
10:40am  -   -   -  25 29 mph 1020.5mb 54f 57f
10:30am  -   -   -  25 29 mph 1020.6mb 54f 57f
10:20am  -   -   -  22 29 mph 1020.6mb 54f 57f
10:10am  -   -   -  22 29 mph 1020.6mb 54f 57f
10:00am  -   -   -  25 29 mph 1020.6mb 54f 57f
9:50am 5.5ft 10s 5s 25 29 mph 1020.5mb 54f 57f
9:40am  -   -   -  25 29 mph 1020.4mb 54f 57f
9:30am  -   -   -  25 29 mph 1020.4mb 54f 57f
9:20am  -   -   -  25 29 mph 1020.6mb 54f 57f
9:10am  -   -   -  25 31 mph 1020.5mb 54f 57f
9:00am  -   -   -  25 29 mph 1020.4mb 54f 57f
8:50am 6ft 10s 6s 22 29 mph 1020.3mb 53f 57f
8:40am 6ft  -  6s 22 27 mph 1020.2mb 53f 57f
8:30am  -   -   -  22 27 mph 1020.1mb 53f 57f
8:20am  -   -   -  25 29 mph 1020.2mb 53f 57f
8:10am  -   -   -  22 29 mph 1020.1mb 53f 57f
8:00am  -   -   -  22 29 mph 1020.1mb 53f 57f
7:50am 6ft 10s 5s 22 29 mph 1020.1mb 53f 57f
7:40am  -   -   -  22 27 mph 1020.1mb 53f 57f
7:30am  -   -   -  22 27 mph 1020.1mb 53f 56f
7:20am  -   -   -  22 27 mph 1019.9mb 53f 56f
7:10am  -   -   -  22 27 mph 1019.8mb 53f 56f
7:00am  -   -   -  22 27 mph 1019.8mb 53f 56f
6:50am 5.5ft 10s 5s 22 27 mph 1019.7mb 53f 56f
6:40am  -   -   -  22 27 mph 1019.6mb 53f 56f
6:30am  -   -   -  22 27 mph 1019.6mb 53f 56f
6:20am  -   -   -  22 27 mph 1019.5mb 53f 56f
6:10am  -   -   -  22 27 mph 1019.4mb 53f 56f
6:00am  -   -   -  20 25 mph 1019.3mb 53f 56f
5:50am 5.5ft 10s 6s 20 25 mph 1019.3mb 53f 56f
5:40am  -   -   -  20 25 mph 1019.3mb 53f 57f
5:30am  -   -   -  22 29 mph 1019.2mb 53f 57f
5:20am  -   -   -  22 27 mph 1019.3mb 53f 57f
5:10am  -   -   -  22 29 mph 1019.4mb 53f 57f
5:00am  -   -   -  22 27 mph 1019.3mb 53f 56f
4:50am 6ft 10s 5s 22 27 mph 1019.3mb 53f 56f
4:40am  -   -   -  22 29 mph 1019.3mb 53f 57f
4:30am  -   -   -  22 27 mph 1019.4mb 53f 57f
4:20am  -   -   -  22 27 mph 1019.5mb 53f 56f
4:10am  -   -   -  22 27 mph 1019.5mb 53f 56f
4:00am  -   -   -  22 29 mph 1019.6mb 53f 56f
3:50am 6ft 11s 6s 22 27 mph 1019.7mb 53f 56f
3:40am 6ft  -  6s 22 27 mph 1019.6mb 53f 56f
3:30am  -   -   -  22 27 mph 1019.7mb 53f 56f
3:20am  -   -   -  20 25 mph 1019.8mb 53f 55f
3:10am  -   -   -  20 22 mph 1019.9mb 53f 55f
3:00am  -   -   -  18 25 mph 1019.8mb 53f 55f
2:50am 6ft 10s 6s 18 22 mph 1019.9mb 53f 55f
2:40am  -   -   -  18 22 mph 1020mb 53f 56f
2:30am  -   -   -  18 25 mph 1020mb 53f 56f
2:20am  -   -   -  20 25 mph 1019.9mb 53f 56f
2:10am  -   -   -  20 25 mph 1019.9mb 53f 56f
2:00am  -   -   -  18 20 mph 1020.1mb 53f 56f
1:50am 6.5ft 10s 6s 16 20 mph 1020.1mb 53f 55f
1:40am  -   -   -  16 20 mph 1020.2mb 53f 55f
1:30am  -   -   -  16 20 mph 1020.3mb 53f 55f
1:20am  -   -   -  16 20 mph 1020.2mb - 55f
1:10am  -   -   -  16 20 mph 1020.3mb 53f 55f
1:00am  -   -   -  16 18 mph 1020.4mb 53f 55f
12:50am 7ft 10s 6s 16 18 mph 1020.4mb 53f 55f
12:40am 7ft  -  6s 16 18 mph 1020.4mb 53f 55f
12:30am  -   -   -  16 20 mph 1020.3mb 53f 56f
12:20am  -   -   -  16 18 mph 1020.3mb 53f 56f
12:10am  -   -   -  13 16 mph 1020.4mb 53f 55f
12:00am  -   -   -  13 16 mph 1020.2mb 53f 55f
Wed 08/16 11:50pm 6ft 9s 6s 13 18 mph 1020.2mb 53f 55f
11:40pm 6ft  -  6s 16 20 mph 1020.2mb 53f 55f
11:30pm  -   -   -  16 18 mph 1020.2mb 53f 55f
11:20pm  -   -   -  16 20 mph 1020.1mb 53f 55f
11:10pm  -   -   -  16 20 mph 1020.1mb 53f 55f
11:00pm  -   -   -  16 20 mph 1020.1mb 53f 56f
10:50pm 6.5ft 10s 6s 16 20 mph 1020mb 53f 55f
10:40pm 6.5ft  -  6s 16 20 mph 1020mb 53f 55f
10:30pm  -   -   -  16 20 mph 1019.9mb 53f 55f
10:20pm  -   -   -  16 18 mph 1019.9mb 53f 55f
10:10pm  -   -   -  16 20 mph 1019.8mb 53f 55f
10:00pm  -   -   -  16 20 mph 1019.6mb 53f 55f
9:50pm 6.5ft 9s 6s 18 20 mph 1019.6mb 53f 55f
9:40pm 6.5ft  -  6s 18 20 mph 1019.6mb 53f 55f
9:30pm  -   -   -  18 22 mph 1019.5mb - 55f
9:20pm  -   -   -  18 22 mph 1019.5mb 53f 55f
9:10pm  -   -   -  16 20 mph 1019.5mb 53f 55f
9:00pm  -   -   -  18 20 mph 1019.3mb 53f 56f
8:50pm 7ft 10s 6s 18 20 mph 1019.2mb 53f 56f
8:40pm  -   -   -  18 20 mph 1019.2mb 53f 56f
8:30pm  -   -   -  18 22 mph 1019.1mb 53f 56f
8:20pm  -   -   -  18 22 mph 1019.1mb 53f 56f
8:10pm  -   -   -  18 22 mph 1019mb 53f 56f
8:00pm  -   -   -  18 22 mph 1018.9mb 53f 56f
7:50pm 7ft 10s 6s 18 22 mph 1018.9mb 53f 56f
7:40pm 7ft  -  6s 18 22 mph 1018.9mb 53f 57f
7:30pm  -   -   -  20 22 mph 1018.8mb 53f 57f
7:20pm  -   -   -  20 25 mph 1018.8mb 53f 57f
7:10pm  -   -   -  20 25 mph 1018.8mb 53f 57f
7:00pm  -   -   -  20 27 mph 1018.7mb 53f 57f
6:50pm 7ft 10s 6s 20 25 mph 1018.6mb 53f 57f
6:30pm 7ft  -  6s 22 27 mph 1018.7mb 53f 57f
6:20pm  -   -   -  20 25 mph 1018.7mb 53f 57f
6:10pm  -   -   -  20 25 mph 1018.7mb 53f 57f
6:00pm  -   -   -  20 27 mph 1018.7mb 53f 57f
5:50pm 7ft 10s 6s 20 27 mph 1018.7mb 53f 57f
5:40pm  -   -   -  22 27 mph 1018.7mb 53f 57f
5:30pm  -   -   -  22 27 mph 1018.7mb 53f 57f
5:20pm  -   -   -  22 27 mph 1018.7mb 53f 57f
5:10pm  -   -   -  25 29 mph 1018.7mb 53f 57f
5:00pm  -   -   -  25 29 mph 1018.7mb 53f 57f
4:50pm 7ft 10s 6s 25 29 mph 1018.8mb 53f 57f
4:40pm 7ft  -  6s 25 29 mph 1018.7mb 53f 57f
4:30pm  -   -   -  25 29 mph 1018.8mb 53f 57f
4:20pm  -   -   -  25 31 mph 1018.8mb 53f 57f
4:10pm  -   -   -  25 31 mph 1018.8mb 53f 57f
4:00pm  -   -   -  27 31 mph 1018.7mb 53f 57f
3:50pm 8ft 10s 6s 25 31 mph 1018.6mb 53f 57f
3:40pm  -   -   -  25 29 mph 1018.7mb 53f 57f
3:30pm  -   -   -  25 31 mph 1018.7mb 53f 58f
3:20pm  -   -   -  25 31 mph 1018.7mb 53f 58f
3:10pm  -   -   -  25 31 mph 1018.7mb 53f 58f
3:00pm  -   -   -  25 31 mph 1018.7mb 53f 58f
2:50pm 7ft 10s 6s 27 34 mph 1018.7mb 53f 58f
2:40pm 7ft  -  6s 27 34 mph 1018.7mb 53f 58f
2:30pm  -   -   -  27 31 mph 1018.8mb 53f 58f
2:20pm  -   -   -  27 31 mph 1018.7mb 53f 58f
2:10pm  -   -   -  27 36 mph 1018.6mb 53f 58f
2:00pm  -   -   -  27 34 mph 1018.6mb 53f 57f
1:50pm 7ft 10s 6s 27 34 mph 1018.8mb 53f 57f
1:40pm 7ft  -  6s 25 31 mph 1018.9mb 53f 57f
1:30pm  -   -   -  25 29 mph 1018.9mb 53f 57f
1:20pm  -   -   -  25 29 mph 1018.9mb 53f 57f
1:10pm  -   -   -  25 29 mph 1018.9mb 53f 57f
1:00pm  -   -   -  25 29 mph 1019mb 53f 57f
12:50pm 7.5ft 10s 6s 22 29 mph 1019.1mb 53f 57f
12:40pm 7.5ft  -  6s 25 29 mph 1019.1mb 53f 57f
12:30pm  -   -   -  25 29 mph 1019.1mb 53f 57f
12:20pm  -   -   -  27 31 mph 1019.1mb 53f 57f
12:10pm  -   -   -  25 31 mph 1019.1mb 53f 57f
12:00pm  -   -   -  25 29 mph 1019mb 53f 57f
11:50am 8ft  -  6s 27 34 mph 1019mb - 57f
11:40am  -   -   -  25 29 mph 1019mb 53f 57f
11:30am  -   -   -  25 29 mph 1018.9mb 53f 57f
11:20am  -   -   -  25 31 mph 1018.8mb 53f 57f
11:10am  -   -   -  25 31 mph 1018.7mb 53f 57f
11:00am  -   -   -  25 29 mph 1018.7mb 53f 57f
10:50am 8ft 10s 6s 25 29 mph 1018.6mb 53f 57f
10:40am 8ft  -  6s 25 31 mph 1018.6mb 53f 57f
10:30am  -   -   -  25 29 mph 1018.6mb 53f 56f
10:20am  -   -   -  25 29 mph 1018.5mb - 56f
10:10am  -   -   -  25 29 mph 1018.6mb 53f 56f
10:00am  -   -   -  25 29 mph 1018.6mb 53f 56f
9:50am 8ft 10s 6s 22 27 mph 1018.6mb 53f 56f
9:40am  -   -   -  25 29 mph 1018.5mb 53f 56f
9:30am  -   -   -  25 31 mph 1018.5mb 53f 56f
9:20am  -   -   -  25 29 mph 1018.4mb 53f 56f
9:10am  -   -   -  25 29 mph 1018.5mb 53f 56f
9:00am  -   -   -  22 27 mph 1018.4mb 53f 56f
8:50am 8ft 10s 6s 25 29 mph 1018.4mb 53f 56f
8:40am 8ft  -  6s 25 31 mph 1018.3mb 53f 56f
8:30am  -   -   -  25 29 mph 1018.1mb 53f 56f
8:20am  -   -   -  25 29 mph 1018.1mb 53f 56f
8:10am  -   -   -  25 29 mph 1018.1mb 53f 56f
8:00am  -   -   -  25 29 mph 1018.1mb 53f 56f
7:50am 8ft 10s 6s 25 29 mph 1018.1mb 53f 56f
7:40am 8ft  -  6s 25 29 mph 1018mb 54f 56f
7:30am  -   -   -  25 29 mph 1017.9mb 54f 56f
7:20am  -   -   -  25 29 mph 1017.8mb 54f 56f
7:10am  -   -   -  25 29 mph 1017.7mb 54f 56f
7:00am  -   -   -  25 29 mph 1017.7mb 54f 56f
6:50am 7.5ft 9s 6s 25 29 mph 1017.6mb 54f 56f
6:40am 7.5ft  -  6s 25 31 mph 1017.6mb 54f 56f
6:30am  -   -   -  25 29 mph 1017.5mb 54f 56f
6:20am  -   -   -  25 29 mph 1017.5mb 54f 56f
6:10am  -   -   -  25 29 mph 1017.3mb 54f 56f
6:00am  -   -   -  25 29 mph 1017.1mb 54f 56f
5:50am 7ft 10s 6s 22 29 mph 1017.1mb 54f 56f
5:40am  -   -   -  22 29 mph 1017.2mb 54f 56f
5:30am  -   -   -  22 29 mph 1016.9mb 54f 56f
5:20am  -   -   -  25 29 mph 1016.8mb 54f 56f
5:10am  -   -   -  22 29 mph 1016.8mb 54f 56f
5:00am  -   -   -  22 27 mph 1016.9mb 54f 56f
4:50am 7ft 9s 6s 22 27 mph 1016.9mb 54f 56f
4:40am 7ft  -  6s 20 27 mph 1017mb 54f 56f
4:30am  -   -   -  20 25 mph 1017mb 54f 56f
4:20am  -   -   -  20 25 mph 1016.9mb 54f 56f
4:10am  -   -   -  20 25 mph 1016.7mb 54f 56f
4:00am  -   -   -  22 25 mph 1016.8mb 54f 56f
3:50am 7ft 10s 6s 22 25 mph 1016.7mb 54f 56f
3:40am  -   -   -  20 25 mph 1016.8mb 54f 56f
3:30am  -   -   -  20 29 mph 1017mb 54f 56f
3:20am  -   -   -  22 29 mph 1016.9mb 54f 57f
3:10am  -   -   -  22 27 mph 1016.9mb 54f 57f
3:00am  -   -   -  22 27 mph 1016.8mb 54f 57f
2:50am 6ft 9s 6s 22 27 mph 1016.7mb 54f 57f
2:40am 6ft  -  6s 22 27 mph 1016.8mb 54f 57f
2:30am  -   -   -  20 25 mph 1016.9mb 54f 57f
2:20am  -   -   -  20 25 mph 1016.8mb 54f 57f
2:10am  -   -   -  22 25 mph 1016.7mb 54f 57f
2:00am  -   -   -  22 27 mph 1016.6mb 54f 57f
1:50am 6ft 10s 6s 22 27 mph 1016.5mb 54f 57f
1:40am 6ft  -  6s 20 25 mph 1016.6mb 54f 57f
1:30am  -   -   -  20 27 mph 1016.6mb 54f 57f
1:20am  -   -   -  20 25 mph 1016.5mb 54f 57f
1:10am  -   -   -  20 25 mph 1016.6mb 54f 57f
1:00am  -   -   -  20 25 mph 1016.5mb 54f 57f
12:50am 5ft 9s 5s 20 22 mph 1016.5mb 54f 57f
12:40am 5ft  -  5s 20 25 mph 1016.6mb 54f 57f
12:30am  -   -   -  20 22 mph 1016.6mb 54f 57f
12:20am  -   -   -  18 22 mph 1016.5mb 54f 57f
12:10am  -   -   -  18 22 mph 1016.6mb 54f 57f
12:00am  -   -   -  18 20 mph 1016.5mb 54f 57f
Tue 08/15 11:50pm 5.5ft 9s 5s 18 20 mph 1016.6mb 54f 57f
11:40pm 5.5ft  -  5s 20 22 mph 1016.5mb 54f 57f
11:30pm  -   -   -  20 22 mph 1016.5mb 54f 57f
11:20pm  -   -   -  20 22 mph 1016.4mb 54f 57f
11:10pm  -   -   -  18 22 mph 1016.3mb 54f 57f
11:00pm  -   -   -  18 22 mph 1016.3mb 55f 57f
10:50pm 5.5ft 10s 5s 20 22 mph 1016.3mb 55f 57f
10:40pm 5.5ft  -  5s 18 22 mph 1016.3mb 55f 57f
10:30pm  -   -   -  18 20 mph 1016.3mb - -
10:20pm  -   -   -  18 20 mph 1016.1mb 55f 57f
10:10pm  -   -   -  18 22 mph 1016mb 55f 57f
10:00pm  -   -   -  18 22 mph 1016mb 55f 57f
9:50pm 5.5ft 10s 5s 20 22 mph 1015.9mb 55f 57f
9:40pm 5.5ft  -  5s 18 22 mph 1015.8mb 55f 57f
9:30pm  -   -   -  16 22 mph 1015.8mb 55f 57f
9:20pm  -   -   -  18 20 mph 1015.7mb 55f 57f
9:10pm  -   -   -  18 20 mph 1015.6mb 55f 57f
9:00pm  -   -   -  20 22 mph 1015.4mb 55f 57f
8:50pm 5.5ft 6s 5s 20 25 mph 1015.2mb 55f 57f
8:40pm 5.5ft  -  5s 20 25 mph 1015mb 55f 57f
8:30pm  -   -   -  22 25 mph 1015mb 54f 57f
8:20pm  -   -   -  20 25 mph 1014.9mb 55f 57f
8:10pm  -   -   -  20 27 mph 1014.9mb 55f 58f
8:00pm  -   -   -  20 25 mph 1014.7mb 55f 58f
7:50pm 5.5ft 10s 5s 20 25 mph 1014.7mb 55f 58f
7:30pm  -   -   -  20 25 mph 1014.7mb 55f 58f
7:20pm  -   -   -  20 25 mph 1014.6mb 55f 58f
7:10pm  -   -   -  22 27 mph 1014.6mb 55f 58f
7:00pm  -   -   -  20 25 mph 1014.6mb 55f 58f
6:50pm 5ft 6s 5s 20 25 mph 1014.6mb 55f 58f
6:40pm 5ft  -  5s 20 27 mph 1014.7mb 55f 58f
6:30pm  -   -   -  20 25 mph 1014.6mb 55f 58f
6:20pm  -   -   -  20 25 mph 1014.6mb 55f 58f
6:10pm  -   -   -  20 25 mph 1014.6mb 55f 58f
6:00pm  -   -   -  20 25 mph 1014.6mb 55f 58f
5:50pm 5ft 10s 5s 20 27 mph 1014.6mb 55f 58f
5:40pm  -   -   -  20 27 mph 1014.6mb 55f 58f
5:30pm  -   -   -  20 25 mph 1014.5mb 55f 58f
5:20pm  -   -   -  22 27 mph 1014.5mb - 58f
5:10pm  -   -   -  22 27 mph 1014.3mb 55f 58f
5:00pm  -   -   -  22 27 mph 1014.3mb 55f 58f
4:50pm 5ft 10s 5s 22 27 mph 1014.4mb 55f 58f
4:40pm  -   -   -  22 27 mph 1014.4mb 55f 58f
4:30pm  -   -   -  22 27 mph 1014.4mb 55f 57f
4:20pm  -   -   -  22 27 mph 1014.4mb 55f 58f
4:10pm  -   -   -  20 27 mph 1014.5mb 55f 57f
4:00pm  -   -   -  20 27 mph 1014.5mb 55f 57f
3:50pm 5ft 9s 5s 22 27 mph 1014.4mb 55f 57f
3:30pm  -   -   -  22 29 mph 1014.5mb - -
3:20pm  -   -   -  22 27 mph 1014.4mb 55f 57f
3:10pm  -   -   -  22 27 mph 1014.3mb 55f 57f
3:00pm  -   -   -  22 27 mph 1014.4mb 55f 57f
2:50pm 5ft 9s 5s 22 27 mph 1014.3mb 55f 57f
2:40pm 5ft  -  5s 22 27 mph 1014.3mb 55f 57f
2:30pm  -   -   -  22 27 mph 1014.3mb 55f 57f
2:20pm  -   -   -  22 27 mph 1014.5mb 55f 57f
2:10pm  -   -   -  22 27 mph 1014.5mb 55f 57f
2:00pm  -   -   -  22 29 mph 1014.5mb 55f 57f
1:50pm 5ft 9s 5s 22 27 mph 1014.4mb 55f 57f
1:40pm  -   -   -  22 27 mph 1014.4mb 55f 57f
1:30pm  -   -   -  22 29 mph 1014.4mb 55f 57f
1:20pm  -   -   -  20 25 mph 1014.6mb 55f 57f
1:10pm  -   -   -  20 27 mph 1014.6mb 55f 57f
1:00pm  -   -   -  20 25 mph 1014.6mb 55f 57f
12:50pm 5ft 9s 6s 20 25 mph 1014.5mb 55f 57f
12:40pm  -   -   -  20 25 mph 1014.5mb 55f 57f
12:30pm  -   -   -  20 25 mph 1014.4mb 55f 57f
12:20pm  -   -   -  20 25 mph 1014.4mb - 57f
12:10pm  -   -   -  20 22 mph 1014.4mb 55f 57f
12:00pm  -   -   -  20 25 mph 1014.4mb 55f 57f
11:50am 5ft 8s 6s 20 22 mph 1014.4mb 55f 57f
11:40am  -   -   -  20 22 mph 1014.4mb 55f 57f
11:30am  -   -   -  18 22 mph 1014.5mb 55f 56f
11:20am  -   -   -  18 22 mph 1014.6mb 55f 56f
11:10am  -   -   -  18 22 mph 1014.4mb 55f 56f
11:00am  -   -   -  18 20 mph 1014.4mb 55f 56f
10:50am 5.5ft 9s 6s 16 20 mph 1014.4mb 55f 56f
10:40am  -   -   -  16 20 mph 1014.4mb 55f 56f
10:30am  -   -   -  16 18 mph 1014.3mb 55f 56f
10:20am  -   -   -  16 18 mph 1014.1mb 55f 56f
10:10am  -   -   -  16 18 mph 1014.1mb 55f 56f
10:00am  -   -   -  13 18 mph 1014.1mb 55f 56f
9:50am 5.5ft 10s 6s 13 16 mph 1014.2mb 55f 56f
9:40am 5.5ft  -  6s 13 18 mph 1014.2mb 54f 56f
9:30am  -   -   -  16 18 mph 1014.1mb 54f 56f
9:20am  -   -   -  16 20 mph 1014.1mb 54f 56f
9:10am  -   -   -  18 22 mph 1014.1mb 54f 56f
9:00am  -   -   -  18 22 mph 1014.1mb 54f 56f
8:50am 6ft 10s 7s 18 20 mph 1014mb 54f 56f
8:40am 6ft  -  7s 16 22 mph 1013.9mb 54f 56f
8:30am  -   -   -  16 18 mph 1013.8mb 54f 56f
8:20am  -   -   -  16 20 mph 1013.8mb 54f 56f
8:10am  -   -   -  16 20 mph 1013.7mb 54f 56f
8:00am  -   -   -  16 20 mph 1013.6mb 54f 56f
7:50am 5ft 9s 6s 16 18 mph 1013.4mb 54f 56f
7:40am  -   -   -  13 16 mph 1013.2mb 54f 56f
7:30am  -   -   -  13 16 mph 1013.3mb 54f 56f
7:20am  -   -   -  13 18 mph 1013.2mb 54f 56f
7:10am  -   -   -  13 16 mph 1013.2mb 54f 56f
7:00am  -   -   -  16 18 mph 1013.1mb 54f 56f
6:50am 5ft 10s 6s 13 16 mph 1013.1mb 54f 56f
6:40am  -   -   -  13 18 mph 1013mb 54f 56f
6:30am  -   -   -  16 18 mph 1013mb 54f 56f
6:20am  -   -   -  16 18 mph 1012.9mb - 56f
6:10am  -   -   -  16 20 mph 1012.8mb 54f 56f
6:00am  -   -   -  16 20 mph 1012.8mb 54f 56f
5:50am 5ft 10s 6s 16 20 mph 1012.8mb 54f 56f
5:40am  -   -   -  16 20 mph 1012.7mb 54f 56f
5:30am  -   -   -  16 18 mph 1012.6mb 54f 56f
5:20am  -   -   -  16 18 mph 1012.7mb 54f 56f
5:10am  -   -   -  16 20 mph 1012.6mb 54f 56f
5:00am  -   -   -  16 18 mph 1012.6mb 54f 56f
4:50am 5ft 11s 7s 16 18 mph 1012.6mb 54f 56f
4:40am  -   -   -  16 18 mph 1012.5mb 54f 56f
4:30am  -   -   -  16 18 mph 1012.5mb 55f 56f
4:20am  -   -   -  16 18 mph 1012.7mb 54f 56f
4:10am  -   -   -  16 18 mph 1012.7mb 54f 56f
4:00am  -   -   -  13 18 mph 1012.7mb 54f 56f
3:50am 4.5ft 10s 6s 13 16 mph 1012.8mb 54f 56f
3:40am 4.5ft  -  6s 13 16 mph 1013mb 54f 56f
3:30am  -   -   -  13 16 mph 1013mb - 56f
3:20am  -   -   -  13 16 mph 1013.2mb 54f 56f
3:10am  -   -   -  13 16 mph 1013.2mb 54f 56f
3:00am  -   -   -  13 18 mph 1013.2mb 54f 56f
2:50am 5ft 11s 7s 16 18 mph 1013.1mb 54f 56f
2:40am 5ft  -  7s 16 18 mph 1013mb 54f 56f
2:30am  -   -   -  16 18 mph 1013mb 54f 56f
2:20am  -   -   -  16 18 mph 1013mb 54f 56f
2:10am  -   -   -  16 18 mph 1013mb 54f 56f
2:00am  -   -   -  16 18 mph 1013.1mb 54f 56f
1:50am 5ft 10s 7s 16 18 mph 1013.1mb 54f 56f
1:40am  -   -   -  16 18 mph 1013.1mb 54f 56f
1:30am  -   -   -  13 16 mph 1013.2mb 54f 56f
1:20am  -   -   -  13 16 mph 1013.1mb 54f 56f
1:10am  -   -   -  13 16 mph 1013.1mb 54f 56f
1:00am  -   -   -  13 16 mph 1013.1mb 54f 56f
12:50am 5.5ft 10s 7s 11 13 mph 1013.1mb 54f 56f
12:40am 5.5ft  -  7s 11 16 mph 1013.2mb 54f 56f
12:30am  -   -   -  11 16 mph 1013.2mb 54f 56f
12:20am  -   -   -  11 13 mph 1013.1mb 54f 56f
12:10am  -   -   -  11 13 mph 1013.1mb 54f 56f
12:00am  -   -   -  11 13 mph 1013.1mb 54f 56f
Mon 08/14 11:50pm 5ft 11s 6s 11 13 mph 1013.2mb 54f 56f
11:40pm 5ft  -  6s 11 13 mph 1013.3mb 54f 56f
11:30pm  -   -   -  13 16 mph 1013.3mb 54f 56f
11:20pm  -   -   -  13 16 mph 1013.3mb - 56f
11:10pm  -   -   -  13 18 mph 1013.4mb 54f 56f
11:00pm  -   -   -  13 18 mph 1013.3mb 54f 56f
10:50pm 5.5ft 11s 6s 13 18 mph 1013.3mb 54f 56f
10:40pm 5.5ft  -  6s 13 16 mph 1013.4mb 54f 56f
10:30pm  -   -   -  13 16 mph 1013.5mb 54f 56f
10:20pm  -   -   -  13 16 mph 1013.4mb 54f 56f
10:10pm  -   -   -  13 18 mph 1013.3mb 54f 56f
10:00pm  -   -   -  16 18 mph 1013.3mb 54f 56f
9:50pm 6ft 10s 6s 16 18 mph 1013.3mb 54f 56f
9:40pm 6ft  -  6s 16 18 mph 1013.3mb 54f 56f
9:30pm  -   -   -  16 18 mph 1013.3mb 54f 56f
9:20pm  -   -   -  16 18 mph 1013.3mb 54f 56f
9:10pm  -   -   -  16 18 mph 1013.3mb 54f 56f
9:00pm  -   -   -  16 18 mph 1013.2mb 54f 56f
8:50pm 7ft 10s 7s 16 18 mph 1013.1mb 54f 56f
8:40pm  -   -   -  16 20 mph 1013.1mb 54f 56f
8:30pm  -   -   -  16 20 mph 1013.1mb 54f 56f
8:20pm  -   -   -  16 20 mph 1013.1mb 54f 56f
8:10pm  -   -   -  16 20 mph 1013.3mb 54f 57f
8:00pm  -   -   -  16 20 mph 1013.3mb 54f 57f
7:50pm 7.5ft 10s 7s 16 20 mph 1013.3mb 54f 57f
7:40pm  -   -   -  16 20 mph 1013.2mb 54f 57f
7:30pm  -   -   -  18 20 mph 1013.2mb 54f 57f
7:20pm  -   -   -  18 20 mph 1013.1mb 54f 57f
7:10pm  -   -   -  18 20 mph 1013.1mb 54f 57f
7:00pm  -   -   -  16 20 mph 1013.2mb 54f 57f
6:50pm 7.5ft 10s 7s 16 20 mph 1013.2mb 54f 57f
6:40pm 7.5ft  -  7s 16 20 mph 1013.3mb 54f 57f
6:30pm  -   -   -  18 22 mph 1013.2mb 54f 57f
6:20pm  -   -   -  18 22 mph 1013.2mb 54f 57f
6:10pm  -   -   -  18 22 mph 1013.2mb 54f 57f
6:00pm  -   -   -  18 22 mph 1013.3mb 54f 57f
5:50pm 7ft 11s 6s 18 22 mph 1013.3mb 54f 57f
4:50pm 6.5ft 9s 6s 18 22 mph 1013.3mb 54f 57f
4:40pm 6.5ft  -  6s 18 22 mph 1013.3mb 54f 57f
4:30pm  -   -   -  18 22 mph 1013.4mb 54f 57f
4:20pm  -   -   -  20 25 mph 1013.4mb 54f 57f
4:10pm  -   -   -  20 25 mph 1013.3mb 54f 57f
4:00pm  -   -   -  22 27 mph 1013.5mb 54f 57f
3:50pm 6ft 10s 6s 22 27 mph 1013.5mb 54f 57f
3:40pm 6ft  -  6s 22 27 mph 1013.6mb 54f 57f
3:30pm  -   -   -  20 25 mph 1013.7mb 54f 57f
3:20pm  -   -   -  20 25 mph 1013.8mb 54f 57f
3:10pm  -   -   -  20 25 mph 1013.8mb 54f 57f
3:00pm  -   -   -  20 27 mph 1013.9mb 54f 57f
2:50pm 6ft 10s 6s 20 25 mph 1014.1mb 54f 57f
2:40pm 6ft  -  6s 20 25 mph 1014.1mb 54f 57f
2:30pm  -   -   -  20 25 mph 1014.1mb 54f 57f
2:20pm  -   -   -  22 25 mph 1014.3mb 54f 57f
2:10pm  -   -   -  22 27 mph 1014.4mb 54f 57f
2:00pm  -   -   -  20 25 mph 1014.4mb 54f 57f
1:50pm 6ft 9s 6s 20 27 mph 1014.6mb 55f 57f
1:40pm 6ft  -  6s 20 25 mph 1014.4mb 55f 57f
1:30pm  -   -   -  20 25 mph 1014.5mb 55f 57f
1:20pm  -   -   -  20 25 mph 1014.5mb 55f 57f
1:10pm  -   -   -  20 25 mph 1014.5mb 55f 57f
1:00pm  -   -   -  20 25 mph 1014.5mb 55f 57f
12:50pm 5.5ft 10s 6s 20 22 mph 1014.5mb 55f 56f
12:40pm 5.5ft  -  6s 20 25 mph 1014.6mb 55f 57f
12:30pm  -   -   -  22 25 mph 1014.5mb 55f 57f
12:20pm  -   -   -  22 25 mph 1014.6mb 55f 57f
12:10pm  -   -   -  20 25 mph 1014.7mb 55f 57f
12:00pm  -   -   -  20 22 mph 1014.7mb 55f 57f
11:50am 5.5ft 10s 6s 20 22 mph 1014.7mb 55f 57f
11:40am  -   -   -  20 25 mph 1014.8mb 55f 57f
11:30am  -   -   -  22 25 mph 1014.9mb 55f 57f
11:20am  -   -   -  22 27 mph 1014.9mb 55f 56f
11:10am  -   -   -  22 27 mph 1014.9mb 55f 56f
11:00am  -   -   -  22 27 mph 1014.9mb 55f 56f
10:50am 6ft 9s 6s 20 25 mph 1015mb 55f 56f
10:40am 6ft  -  6s 20 25 mph 1015mb 55f 56f
10:30am  -   -   -  20 27 mph 1015mb 55f 56f
10:20am  -   -   -  20 25 mph 1015.1mb 55f 56f
10:10am  -   -   -  20 27 mph 1015.1mb 55f 56f
10:00am  -   -   -  20 25 mph 1015.2mb - 57f
9:50am 6ft 9s 6s 20 25 mph 1015.2mb 54f 57f
9:40am  -   -   -  20 25 mph 1015.4mb 54f 57f
9:30am  -   -   -  20 27 mph 1015.4mb 54f 57f
9:20am  -   -   -  20 25 mph 1015.5mb 54f 57f
9:10am  -   -   -  20 25 mph 1015.5mb 54f 57f
9:00am  -   -   -  20 25 mph 1015.5mb 54f 57f
8:50am 6.5ft 9s 6s 20 25 mph 1015.6mb 54f 57f
8:40am 6.5ft  -  6s 20 25 mph 1015.5mb 55f 57f
8:30am  -   -   -  20 25 mph 1015.4mb 55f 57f
8:20am  -   -   -  20 25 mph 1015.4mb 55f 57f
8:10am  -   -   -  20 22 mph 1015.4mb 55f 57f
8:00am  -   -   -  20 25 mph 1015.4mb 55f 57f
7:50am 6ft 10s 6s 20 25 mph 1015.5mb 55f 57f
7:40am  -   -   -  20 25 mph 1015.4mb 55f 57f
7:30am  -   -   -  20 25 mph 1015.4mb 55f 57f
7:20am  -   -   -  20 22 mph 1015.4mb 55f 57f
7:10am  -   -   -  20 25 mph 1015.5mb 55f 57f
7:00am  -   -   -  20 25 mph 1015.6mb 55f 57f
6:50am 5.5ft 8s 6s 20 25 mph 1015.6mb 55f 57f
6:40am  -   -   -  20 25 mph 1015.6mb 55f 57f
6:30am  -   -   -  20 25 mph 1015.7mb 55f 57f
6:20am  -   -   -  20 25 mph 1015.7mb 55f 57f
6:10am  -   -   -  20 25 mph 1015.7mb 55f 57f
6:00am  -   -   -  20 25 mph 1015.7mb 55f 57f
5:50am 6ft 8s 6s 20 25 mph 1015.7mb 55f 57f
5:40am 6ft  -  6s 20 22 mph 1015.7mb 55f 57f
5:30am  -   -   -  18 22 mph 1015.5mb 55f 57f
5:20am  -   -   -  18 20 mph 1015.5mb 55f 57f
5:10am  -   -   -  18 20 mph 1015.5mb 55f 57f
5:00am  -   -   -  18 22 mph 1015.6mb 55f 57f
4:50am 5.5ft 9s 6s 18 20 mph 1015.6mb 55f 57f
4:40am 5.5ft  -  6s 18 22 mph 1015.5mb 55f 57f
4:30am  -   -   -  18 22 mph 1015.8mb 55f 57f
4:20am  -   -   -  18 20 mph 1016mb 55f 57f
4:10am  -   -   -  18 20 mph 1016.3mb 55f 57f
4:00am  -   -   -  18 20 mph 1016.2mb 55f 57f
3:50am 6ft 9s 6s 18 22 mph 1016.1mb 55f 57f
3:40am 6ft  -  6s 18 22 mph 1016.2mb 55f 57f